Terminal Aerodrome Forecast
Issued by NWS Newport/Morehead City, NC

Home | Current Version | Previous Version | Text Only | Print | Product List | Glossary On
Versions: 1 2 3 4 5 6 7 8 9 10 11 12 13 14 15 16
316
FTUS42 KMHX 201140
TAFEWN
TAF
KEWN 201140Z 2012/2112 23007KT 6SM -SHRA OVC025
     FM201800 22007KT 3SM +SHRA VCTS OVC030CB
     FM210100 VRB03KT 6SM SHRA OVC020
     FM210700 VRB03KT 6SM SHRA OVC015=

USA.gov is the U.S. government's official web portal to all federal, state and local government web resources and services.